createdAt,value
2022-12-27T00:01:40.928Z,6.10
2022-12-27T00:06:55.118Z,6.12
2022-12-27T00:12:00.131Z,6.10
2022-12-27T00:17:06.608Z,5.99
2022-12-27T00:22:14.377Z,5.89
2022-12-27T00:27:27.912Z,5.94
2022-12-27T00:32:33.103Z,5.94
2022-12-27T00:37:44.996Z,5.97
2022-12-27T00:42:48.563Z,5.88
2022-12-27T00:47:55.155Z,5.50
2022-12-27T00:53:02.084Z,5.39
2022-12-27T00:58:06.816Z,5.22
2022-12-27T01:03:17.593Z,5.14
2022-12-27T01:08:22.835Z,5.13
2022-12-27T01:13:26.760Z,5.10
2022-12-27T01:18:29.958Z,5.05
2022-12-27T01:23:33.427Z,5.09
2022-12-27T01:28:41.318Z,4.93
2022-12-27T01:33:46.869Z,4.94
2022-12-27T01:38:50.774Z,4.94
2022-12-27T01:43:57.575Z,4.96
2022-12-27T01:49:05.236Z,4.80
2022-12-27T01:54:09.111Z,4.73
2022-12-27T01:59:13.327Z,4.71
2022-12-27T02:04:29.402Z,4.78
2022-12-27T02:09:33.477Z,4.79
2022-12-27T02:14:47.108Z,4.78
2022-12-27T02:19:54.471Z,4.79
2022-12-27T02:24:59.001Z,4.79
2022-12-27T02:30:05.120Z,4.73
2022-12-27T02:35:18.908Z,4.70
2022-12-27T02:40:40.064Z,4.77
2022-12-27T02:46:05.011Z,4.80
2022-12-27T02:51:27.230Z,4.75
2022-12-27T02:56:47.645Z,4.66
2022-12-27T03:02:09.979Z,4.46
2022-12-27T03:07:20.639Z,4.34
2022-12-27T03:12:42.364Z,4.29
2022-12-27T03:17:48.793Z,4.31
2022-12-27T03:23:13.602Z,4.20
2022-12-27T03:28:35.291Z,4.04
2022-12-27T03:33:39.630Z,3.80
2022-12-27T03:38:52.049Z,3.73
2022-12-27T03:44:00.755Z,3.67
2022-12-27T03:49:05.818Z,3.73
2022-12-27T03:54:19.054Z,3.56
2022-12-27T03:59:31.617Z,3.53
2022-12-27T04:04:38.113Z,3.43
2022-12-27T04:10:03.262Z,3.34
2022-12-27T04:15:24.910Z,3.14
2022-12-27T04:20:45.876Z,2.99
2022-12-27T04:26:09.314Z,2.85
2022-12-27T04:31:30.942Z,2.79
2022-12-27T04:36:39.939Z,2.63
2022-12-27T04:42:01.360Z,2.63
2022-12-27T04:47:22.712Z,2.48
2022-12-27T04:52:44.458Z,2.34
2022-12-27T04:57:49.790Z,2.15
2022-12-27T05:02:59.474Z,2.08
2022-12-27T05:08:29.659Z,2.22
2022-12-27T05:13:51.563Z,2.36
2022-12-27T05:18:55.052Z,2.43
2022-12-27T05:24:17.223Z,2.40
2022-12-27T05:29:21.970Z,2.40
2022-12-27T05:34:27.126Z,2.29
2022-12-27T05:39:32.784Z,2.07
2022-12-27T05:44:37.722Z,2.07
2022-12-27T05:49:44.114Z,1.87
2022-12-27T05:54:54.274Z,1.74
2022-12-27T05:59:58.270Z,1.56
2022-12-27T06:05:07.812Z,1.51
2022-12-27T06:10:12.195Z,1.51
2022-12-27T06:15:17.468Z,1.32
2022-12-27T06:20:22.026Z,1.25
2022-12-27T06:25:24.896Z,1.13
2022-12-27T06:30:31.600Z,1.23
2022-12-27T06:35:40.901Z,1.11
2022-12-27T06:40:49.328Z,1.24
2022-12-27T06:45:54.516Z,1.15
2022-12-27T06:51:00.157Z,1.19
2022-12-27T06:56:18.361Z,1.06
2022-12-27T07:01:29.190Z,0.99
2022-12-27T07:06:34.685Z,0.93
2022-12-27T07:11:39.472Z,0.84
2022-12-27T07:16:42.756Z,0.79
2022-12-27T07:21:48.701Z,0.90
2022-12-27T07:27:04.412Z,0.96
2022-12-27T07:32:08.264Z,1.20
2022-12-27T07:37:12.847Z,1.29
2022-12-27T07:42:16.980Z,1.29
2022-12-27T07:47:24.363Z,1.29
2022-12-27T07:52:30.598Z,1.32
2022-12-27T07:57:48.058Z,1.43
2022-12-27T08:02:59.493Z,1.45
2022-12-27T08:08:03.340Z,1.53
2022-12-27T08:13:09.935Z,1.73
2022-12-27T08:18:20.399Z,1.82
2022-12-27T08:23:31.389Z,1.86
2022-12-27T08:28:36.132Z,1.87
2022-12-27T08:33:58.104Z,2.01
2022-12-27T08:39:07.370Z,2.10
2022-12-27T08:44:12.896Z,2.14
2022-12-27T08:49:18.511Z,2.17
2022-12-27T08:54:22.552Z,2.29
2022-12-27T08:59:30.213Z,2.43
2022-12-27T09:04:35.546Z,2.48
2022-12-27T09:09:39.671Z,2.65
2022-12-27T09:14:50.578Z,2.80
2022-12-27T09:19:54.501Z,2.95
2022-12-27T09:25:00.643Z,3.10
2022-12-27T09:30:05.093Z,3.20
2022-12-27T09:35:11.591Z,3.30
2022-12-27T09:40:17.706Z,3.36
2022-12-27T09:45:23.394Z,3.49
2022-12-27T09:50:31.524Z,3.51
2022-12-27T09:55:35.975Z,3.62
2022-12-27T10:00:46.432Z,3.66
2022-12-27T10:05:56.242Z,3.69
2022-12-27T10:11:04.365Z,3.91
2022-12-27T10:16:14.684Z,3.97
2022-12-27T10:21:18.761Z,4.09
2022-12-27T10:26:22.487Z,4.20
2022-12-27T10:31:28.548Z,4.20
2022-12-27T10:36:34.089Z,4.41
2022-12-27T10:41:38.216Z,4.39
2022-12-27T10:46:49.480Z,4.48
2022-12-27T10:52:00.425Z,4.27
2022-12-27T10:57:06.261Z,4.43
2022-12-27T11:02:10.544Z,4.58
2022-12-27T11:07:17.552Z,4.53
2022-12-27T11:12:29.739Z,4.58
2022-12-27T11:17:37.384Z,4.65
2022-12-27T11:22:43.564Z,4.64
2022-12-27T11:27:47.546Z,4.78
2022-12-27T11:32:55.238Z,4.85
2022-12-27T11:38:06.432Z,4.99
2022-12-27T11:43:10.546Z,4.94
2022-12-27T11:48:15.444Z,4.93
2022-12-27T11:53:24.016Z,4.87
2022-12-27T11:58:37.876Z,4.89
2022-12-27T12:03:47.435Z,5.09
2022-12-27T12:08:55.449Z,5.36
2022-12-27T12:14:00.597Z,5.70
2022-12-27T12:19:06.072Z,5.77
2022-12-27T12:24:12.924Z,5.72
2022-12-27T12:29:17.497Z,5.53
2022-12-27T12:34:24.442Z,5.33
2022-12-27T12:39:31.350Z,5.33
2022-12-27T12:44:41.978Z,5.35
2022-12-27T12:49:56.361Z,5.38
2022-12-27T12:55:13.191Z,5.31
2022-12-27T13:00:33.160Z,5.14
2022-12-27T13:05:54.770Z,5.27
2022-12-27T13:11:02.200Z,5.39
2022-12-27T13:16:10.861Z,5.48
2022-12-27T13:21:26.199Z,5.64
2022-12-27T13:26:30.045Z,5.68
2022-12-27T13:31:45.034Z,5.98
2022-12-27T13:36:48.701Z,6.01
2022-12-27T13:41:52.281Z,5.96
2022-12-27T13:46:59.797Z,5.86
2022-12-27T13:52:04.227Z,5.78
2022-12-27T13:57:18.409Z,5.63
2022-12-27T14:02:25.898Z,5.49
2022-12-27T14:07:48.181Z,5.46
2022-12-27T14:12:56.401Z,5.27
2022-12-27T14:18:01.974Z,5.27
2022-12-27T14:23:06.534Z,5.17
2022-12-27T14:28:09.963Z,5.13
2022-12-27T14:33:23.867Z,5.01
2022-12-27T14:38:38.098Z,4.85
2022-12-27T14:43:45.258Z,4.71
2022-12-27T14:48:49.916Z,4.58
2022-12-27T14:53:53.471Z,4.48
2022-12-27T14:58:59.735Z,4.31
2022-12-27T15:04:17.415Z,4.13
2022-12-27T15:09:31.556Z,4.03
2022-12-27T15:14:48.383Z,3.84
2022-12-27T15:19:52.906Z,3.65
2022-12-27T15:24:59.487Z,3.57
2022-12-27T15:30:13.475Z,3.46
2022-12-27T15:35:32.787Z,3.33
2022-12-27T15:40:58.590Z,3.20
2022-12-27T15:46:05.122Z,3.12
2022-12-27T15:51:19.953Z,3.06
2022-12-27T15:56:27.206Z,2.99
2022-12-27T16:01:41.425Z,2.92
2022-12-27T16:06:45.536Z,2.86
2022-12-27T16:12:00.042Z,2.79
2022-12-27T16:17:19.873Z,2.71
2022-12-27T16:22:48.550Z,2.63
2022-12-27T16:28:11.548Z,2.58
2022-12-27T16:33:27.895Z,2.52
2022-12-27T16:38:37.849Z,2.49
2022-12-27T16:43:59.404Z,2.36
2022-12-27T16:49:13.729Z,2.35
2022-12-27T16:54:33.004Z,2.37
2022-12-27T16:59:48.530Z,2.40
2022-12-27T17:04:53.712Z,2.38
2022-12-27T17:09:57.869Z,2.42
2022-12-27T17:15:15.363Z,2.45
2022-12-27T17:20:23.078Z,2.49
2022-12-27T17:25:30.060Z,2.51
2022-12-27T17:30:44.963Z,2.68
2022-12-27T17:35:49.039Z,2.64
2022-12-27T17:40:54.553Z,2.66
2022-12-27T17:46:01.555Z,2.81
2022-12-27T17:51:25.154Z,2.83
2022-12-27T17:56:57.746Z,2.88
2022-12-27T18:02:01.764Z,2.92
2022-12-27T18:07:11.400Z,2.98
2022-12-27T18:12:15.799Z,3.02
2022-12-27T18:17:28.966Z,3.10
2022-12-27T18:22:40.476Z,3.13
2022-12-27T18:27:47.023Z,3.18
2022-12-27T18:32:53.006Z,3.19
2022-12-27T18:37:57.496Z,3.24
2022-12-27T18:43:03.268Z,3.28
2022-12-27T18:48:16.342Z,3.27
2022-12-27T18:53:22.276Z,3.30
2022-12-27T18:58:31.023Z,3.28
2022-12-27T19:03:44.566Z,3.31
2022-12-27T19:08:50.034Z,3.27
2022-12-27T19:13:53.453Z,3.25
2022-12-27T19:18:58.009Z,3.24
2022-12-27T19:24:02.316Z,3.25
2022-12-27T19:29:06.535Z,3.12
2022-12-27T19:34:10.080Z,3.03
2022-12-27T19:39:13.085Z,2.94
2022-12-27T19:44:18.749Z,2.90
2022-12-27T19:49:41.596Z,2.81
2022-12-27T19:54:51.722Z,2.80
2022-12-27T19:59:59.049Z,2.82
2022-12-27T20:05:04.842Z,2.72
2022-12-27T20:10:09.233Z,2.66
2022-12-27T20:15:13.762Z,2.68
2022-12-27T20:20:22.316Z,2.57
2022-12-27T20:25:32.732Z,2.47
2022-12-27T20:30:36.560Z,2.40
2022-12-27T20:35:42.369Z,2.25
2022-12-27T20:40:46.305Z,2.22
2022-12-27T20:45:50.546Z,2.13
2022-12-27T20:50:55.915Z,2.07
2022-12-27T20:55:59.616Z,2.02
2022-12-27T21:01:06.894Z,1.94
2022-12-27T21:06:20.676Z,1.82
2022-12-27T21:11:24.778Z,1.83
2022-12-27T21:16:39.295Z,1.70
2022-12-27T21:21:47.883Z,1.71
2022-12-27T21:26:56.209Z,1.74
2022-12-27T21:32:04.257Z,1.74
2022-12-27T21:37:13.495Z,1.60
2022-12-27T21:42:18.940Z,1.54
2022-12-27T21:47:24.322Z,1.59
2022-12-27T21:52:28.956Z,1.52
2022-12-27T21:57:38.633Z,1.42
2022-12-27T22:02:57.272Z,1.39
2022-12-27T22:08:02.074Z,1.30
2022-12-27T22:13:08.098Z,1.35
2022-12-27T22:18:15.683Z,1.23
2022-12-27T22:23:25.878Z,1.17
2022-12-27T22:28:29.544Z,1.12
2022-12-27T22:33:38.487Z,1.13
2022-12-27T22:38:49.668Z,1.04
2022-12-27T22:43:53.568Z,1.05
2022-12-27T22:48:58.348Z,1.00
2022-12-27T22:54:03.544Z,0.99
2022-12-27T22:59:07.555Z,0.93
2022-12-27T23:04:11.668Z,0.93
2022-12-27T23:09:17.361Z,0.99
2022-12-27T23:14:23.498Z,0.99
2022-12-27T23:19:29.726Z,1.01
2022-12-27T23:24:36.157Z,0.95
2022-12-27T23:29:46.867Z,1.08
2022-12-27T23:34:54.169Z,1.01
2022-12-27T23:39:58.755Z,0.89
2022-12-27T23:45:02.140Z,0.85
2022-12-27T23:50:10.017Z,0.76
2022-12-27T23:55:17.606Z,0.73
